sensor_id;sensor_type;location;lat;lon;timestamp;pressure;altitude;pressure_sealevel;temperature;humidity
69836;BME280;57132;51.972;4.450;2022-10-31T00:01:26;101975.88;;;11.20;100.00
69836;BME280;57132;51.972;4.450;2022-10-31T00:03:52;101971.34;;;11.22;100.00
69836;BME280;57132;51.972;4.450;2022-10-31T00:06:18;101978.13;;;11.27;100.00
69836;BME280;57132;51.972;4.450;2022-10-31T00:08:45;101984.19;;;11.31;100.00
69836;BME280;57132;51.972;4.450;2022-10-31T00:11:10;101980.38;;;11.35;100.00
69836;BME280;57132;51.972;4.450;2022-10-31T00:13:36;101981.19;;;11.37;100.00
69836;BME280;57132;51.972;4.450;2022-10-31T00:16:01;101983.59;;;11.42;100.00
69836;BME280;57132;51.972;4.450;2022-10-31T00:18:27;101987.81;;;11.46;100.00
69836;BME280;57132;51.972;4.450;2022-10-31T00:21:02;101987.66;;;11.49;100.00
69836;BME280;57132;51.972;4.450;2022-10-31T00:23:28;101984.97;;;11.49;100.00
69836;BME280;57132;51.972;4.450;2022-10-31T00:25:53;101991.34;;;11.46;100.00
69836;BME280;57132;51.972;4.450;2022-10-31T00:28:18;101990.81;;;11.40;100.00
69836;BME280;57132;51.972;4.450;2022-10-31T00:30:44;101991.09;;;11.35;100.00
69836;BME280;57132;51.972;4.450;2022-10-31T00:33:09;101987.72;;;11.31;100.00
69836;BME280;57132;51.972;4.450;2022-10-31T00:35:34;101999.47;;;11.29;100.00
69836;BME280;57132;51.972;4.450;2022-10-31T00:38:00;101999.69;;;11.24;100.00
69836;BME280;57132;51.972;4.450;2022-10-31T00:40:25;101997.97;;;11.23;100.00
69836;BME280;57132;51.972;4.450;2022-10-31T00:42:50;102001.50;;;11.24;100.00
69836;BME280;57132;51.972;4.450;2022-10-31T00:45:16;102003.25;;;11.25;100.00
69836;BME280;57132;51.972;4.450;2022-10-31T00:47:41;102002.34;;;11.24;100.00
69836;BME280;57132;51.972;4.450;2022-10-31T00:50:07;101995.22;;;11.25;100.00
69836;BME280;57132;51.972;4.450;2022-10-31T00:52:32;101996.94;;;11.26;100.00
69836;BME280;57132;51.972;4.450;2022-10-31T00:54:58;102002.13;;;11.29;100.00
69836;BME280;57132;51.972;4.450;2022-10-31T00:57:23;101991.59;;;11.26;100.00
69836;BME280;57132;51.972;4.450;2022-10-31T00:59:48;101986.59;;;11.20;100.00
69836;BME280;57132;51.972;4.450;2022-10-31T01:02:14;101972.53;;;11.16;100.00
69836;BME280;57132;51.972;4.450;2022-10-31T01:04:39;101967.38;;;11.13;100.00
69836;BME280;57132;51.972;4.450;2022-10-31T01:07:04;101977.97;;;11.15;100.00
69836;BME280;57132;51.972;4.450;2022-10-31T01:09:30;101977.81;;;11.18;100.00
69836;BME280;57132;51.972;4.450;2022-10-31T01:11:55;101978.66;;;11.18;100.00
69836;BME280;57132;51.972;4.450;2022-10-31T01:14:20;101981.59;;;11.14;100.00
69836;BME280;57132;51.972;4.450;2022-10-31T01:16:46;101971.91;;;11.11;100.00
69836;BME280;57132;51.972;4.450;2022-10-31T01:19:11;101975.63;;;11.08;100.00
69836;BME280;57132;51.972;4.450;2022-10-31T01:21:37;101981.16;;;11.05;100.00
69836;BME280;57132;51.972;4.450;2022-10-31T01:24:02;101966.22;;;11.01;100.00
69836;BME280;57132;51.972;4.450;2022-10-31T01:26:30;101970.88;;;10.98;100.00
69836;BME280;57132;51.972;4.450;2022-10-31T01:29:01;101975.44;;;10.96;100.00
69836;BME280;57132;51.972;4.450;2022-10-31T01:31:38;101968.47;;;10.93;100.00
69836;BME280;57132;51.972;4.450;2022-10-31T01:34:04;101964.13;;;10.91;100.00
69836;BME280;57132;51.972;4.450;2022-10-31T01:39:02;101959.66;;;10.91;100.00
69836;BME280;57132;51.972;4.450;2022-10-31T01:41:31;101966.91;;;10.89;100.00
69836;BME280;57132;51.972;4.450;2022-10-31T01:43:59;101955.44;;;10.87;100.00
69836;BME280;57132;51.972;4.450;2022-10-31T01:46:34;101952.16;;;10.82;100.00
69836;BME280;57132;51.972;4.450;2022-10-31T01:49:04;101953.25;;;10.78;100.00
69836;BME280;57132;51.972;4.450;2022-10-31T01:51:34;101946.38;;;10.74;100.00
69836;BME280;57132;51.972;4.450;2022-10-31T01:54:04;101953.56;;;10.72;100.00
69836;BME280;57132;51.972;4.450;2022-10-31T01:56:33;101946.38;;;10.74;100.00
69836;BME280;57132;51.972;4.450;2022-10-31T01:59:01;101948.84;;;10.77;100.00
69836;BME280;57132;51.972;4.450;2022-10-31T02:01:54;101944.28;;;10.79;100.00
69836;BME280;57132;51.972;4.450;2022-10-31T02:04:21;101945.16;;;10.79;100.00
69836;BME280;57132;51.972;4.450;2022-10-31T02:06:56;101949.53;;;10.80;100.00
69836;BME280;57132;51.972;4.450;2022-10-31T02:09:25;101942.63;;;10.76;100.00
69836;BME280;57132;51.972;4.450;2022-10-31T02:11:56;101947.22;;;10.74;100.00
69836;BME280;57132;51.972;4.450;2022-10-31T02:14:23;101946.25;;;10.75;100.00
69836;BME280;57132;51.972;4.450;2022-10-31T02:16:49;101947.22;;;10.74;100.00
69836;BME280;57132;51.972;4.450;2022-10-31T02:19:21;101950.91;;;10.72;100.00
69836;BME280;57132;51.972;4.450;2022-10-31T02:21:58;101954.53;;;10.71;100.00
69836;BME280;57132;51.972;4.450;2022-10-31T02:24:42;101955.28;;;10.73;100.00
69836;BME280;57132;51.972;4.450;2022-10-31T02:30:18;101952.47;;;10.76;100.00
69836;BME280;57132;51.972;4.450;2022-10-31T02:38:23;101943.00;;;10.70;100.00
69836;BME280;57132;51.972;4.450;2022-10-31T02:41:00;101950.69;;;10.59;100.00
69836;BME280;57132;51.972;4.450;2022-10-31T02:43:32;101951.25;;;10.48;100.00
69836;BME280;57132;51.972;4.450;2022-10-31T02:46:13;101953.63;;;10.37;100.00
69836;BME280;57132;51.972;4.450;2022-10-31T02:48:41;101946.19;;;10.26;100.00
69836;BME280;57132;51.972;4.450;2022-10-31T02:51:09;101946.47;;;10.20;100.00
69836;BME280;57132;51.972;4.450;2022-10-31T02:53:37;101940.41;;;10.17;100.00
69836;BME280;57132;51.972;4.450;2022-10-31T02:56:17;101944.28;;;10.11;100.00
69836;BME280;57132;51.972;4.450;2022-10-31T03:06:57;101943.34;;;10.12;100.00
69836;BME280;57132;51.972;4.450;2022-10-31T03:15:00;101950.31;;;9.97;100.00
69836;BME280;57132;51.972;4.450;2022-10-31T03:17:36;101942.38;;;9.96;100.00
69836;BME280;57132;51.972;4.450;2022-10-31T03:20:04;101943.97;;;10.00;100.00
69836;BME280;57132;51.972;4.450;2022-10-31T03:22:32;101944.66;;;10.03;100.00
69836;BME280;57132;51.972;4.450;2022-10-31T03:25:00;101947.25;;;10.05;100.00
69836;BME280;57132;51.972;4.450;2022-10-31T03:27:29;101946.25;;;10.07;100.00
69836;BME280;57132;51.972;4.450;2022-10-31T03:30:00;101949.00;;;10.06;100.00
69836;BME280;57132;51.972;4.450;2022-10-31T03:35:01;101937.44;;;10.05;100.00
69836;BME280;57132;51.972;4.450;2022-10-31T03:37:30;101949.00;;;10.06;100.00
69836;BME280;57132;51.972;4.450;2022-10-31T03:40:00;101942.94;;;10.02;100.00
69836;BME280;57132;51.972;4.450;2022-10-31T03:42:30;101946.47;;;10.03;100.00
69836;BME280;57132;51.972;4.450;2022-10-31T03:47:34;101943.00;;;10.01;100.00
69836;BME280;57132;51.972;4.450;2022-10-31T03:50:02;101941.38;;;9.98;100.00
69836;BME280;57132;51.972;4.450;2022-10-31T03:52:40;101940.44;;;9.99;100.00
69836;BME280;57132;51.972;4.450;2022-10-31T03:55:13;101937.69;;;10.01;100.00
69836;BME280;57132;51.972;4.450;2022-10-31T03:57:58;101940.28;;;10.02;100.00
69836;BME280;57132;51.972;4.450;2022-10-31T04:00:25;101941.06;;;10.04;100.00
69836;BME280;57132;51.972;4.450;2022-10-31T04:02:58;101943.66;;;10.06;100.00
69836;BME280;57132;51.972;4.450;2022-10-31T04:05:26;101938.47;;;10.03;100.00
69836;BME280;57132;51.972;4.450;2022-10-31T04:07:54;101942.94;;;10.02;100.00
69836;BME280;57132;51.972;4.450;2022-10-31T04:10:22;101945.63;;;10.02;100.00
69836;BME280;57132;51.972;4.450;2022-10-31T04:12:53;101946.38;;;10.04;100.00
69836;BME280;57132;51.972;4.450;2022-10-31T04:15:22;101943.56;;;10.07;100.00
69836;BME280;57132;51.972;4.450;2022-10-31T04:17:50;101948.63;;;10.14;100.00
69836;BME280;57132;51.972;4.450;2022-10-31T04:20:17;101944.91;;;10.16;100.00
69836;BME280;57132;51.972;4.450;2022-10-31T04:22:43;101951.03;;;10.18;100.00
69836;BME280;57132;51.972;4.450;2022-10-31T04:25:08;101945.47;;;10.23;100.00
69836;BME280;57132;51.972;4.450;2022-10-31T04:27:34;101948.13;;;10.23;100.00
69836;BME280;57132;51.972;4.450;2022-10-31T04:29:59;101950.69;;;10.24;100.00
69836;BME280;57132;51.972;4.450;2022-10-31T04:32:25;101944.59;;;10.22;100.00
69836;BME280;57132;51.972;4.450;2022-10-31T04:34:51;101944.66;;;10.21;100.00
69836;BME280;57132;51.972;4.450;2022-10-31T04:37:16;101937.69;;;10.18;100.00
69836;BME280;57132;51.972;4.450;2022-10-31T04:39:42;101944.75;;;10.19;100.00
69836;BME280;57132;51.972;4.450;2022-10-31T04:42:07;101939.31;;;10.21;100.00
69836;BME280;57132;51.972;4.450;2022-10-31T04:44:32;101946.56;;;10.19;100.00
69836;BME280;57132;51.972;4.450;2022-10-31T04:46:58;101943.03;;;10.18;100.00
69836;BME280;57132;51.972;4.450;2022-10-31T04:49:23;101942.31;;;10.15;100.00
69836;BME280;57132;51.972;4.450;2022-10-31T04:51:48;101934.38;;;10.13;100.00
69836;BME280;57132;51.972;4.450;2022-10-31T04:54:14;101936.28;;;10.11;100.00
69836;BME280;57132;51.972;4.450;2022-10-31T04:56:39;101934.56;;;10.10;100.00
69836;BME280;57132;51.972;4.450;2022-10-31T04:59:04;101927.81;;;10.03;100.00
69836;BME280;57132;51.972;4.450;2022-10-31T05:01:29;101925.44;;;9.97;100.00
69836;BME280;57132;51.972;4.450;2022-10-31T05:03:55;101930.00;;;9.95;100.00
69836;BME280;57132;51.972;4.450;2022-10-31T05:06:20;101929.34;;;9.90;100.00
69836;BME280;57132;51.972;4.450;2022-10-31T05:08:46;101930.31;;;9.89;100.00
69836;BME280;57132;51.972;4.450;2022-10-31T05:11:11;101928.44;;;9.91;100.00
69836;BME280;57132;51.972;4.450;2022-10-31T05:13:36;101931.63;;;9.97;100.00
69836;BME280;57132;51.972;4.450;2022-10-31T05:16:02;101925.28;;;10.00;100.00
69836;BME280;57132;51.972;4.450;2022-10-31T05:18:28;101923.47;;;10.00;100.00
69836;BME280;57132;51.972;4.450;2022-10-31T05:20:53;101922.47;;;10.03;100.00
69836;BME280;57132;51.972;4.450;2022-10-31T05:23:19;101909.03;;;10.04;100.00
69836;BME280;57132;51.972;4.450;2022-10-31T05:25:44;101910.75;;;10.05;100.00
69836;BME280;57132;51.972;4.450;2022-10-31T05:28:09;101909.03;;;10.04;100.00
69836;BME280;57132;51.972;4.450;2022-10-31T05:30:35;101904.03;;;9.98;100.00
69836;BME280;57132;51.972;4.450;2022-10-31T05:33:01;101906.91;;;9.94;100.00
69836;BME280;57132;51.972;4.450;2022-10-31T05:35:29;101897.28;;;9.91;100.00
69836;BME280;57132;51.972;4.450;2022-10-31T05:37:55;101903.97;;;9.82;100.00
69836;BME280;57132;51.972;4.450;2022-10-31T05:40:21;101901.69;;;9.75;100.00
69836;BME280;57132;51.972;4.450;2022-10-31T05:42:47;101908.16;;;9.69;100.00
69836;BME280;57132;51.972;4.450;2022-10-31T05:45:16;101908.25;;;9.68;100.00
69836;BME280;57132;51.972;4.450;2022-10-31T05:47:42;101914.72;;;9.62;100.00
69836;BME280;57132;51.972;4.450;2022-10-31T05:50:09;101910.50;;;9.58;100.00
69836;BME280;57132;51.972;4.450;2022-10-31T05:52:35;101908.91;;;9.54;100.00
69836;BME280;57132;51.972;4.450;2022-10-31T05:55:00;101911.81;;;9.49;100.00
69836;BME280;57132;51.972;4.450;2022-10-31T05:57:26;101913.00;;;9.44;100.00
69836;BME280;57132;51.972;4.450;2022-10-31T05:59:51;101911.19;;;9.44;100.00
69836;BME280;57132;51.972;4.450;2022-10-31T06:02:19;101900.63;;;9.43;100.00
69836;BME280;57132;51.972;4.450;2022-10-31T06:05:01;101901.75;;;9.37;100.00
69836;BME280;57132;51.972;4.450;2022-10-31T06:07:27;101898.53;;;9.30;100.00
69836;BME280;57132;51.972;4.450;2022-10-31T06:10:01;101899.78;;;9.23;100.00
69836;BME280;57132;51.972;4.450;2022-10-31T06:12:27;101896.53;;;9.17;100.00
69836;BME280;57132;51.972;4.450;2022-10-31T06:15:08;101899.47;;;9.10;100.00
69836;BME280;57132;51.972;4.450;2022-10-31T06:17:35;101896.81;;;9.10;100.00
69836;BME280;57132;51.972;4.450;2022-10-31T06:20:01;101908.28;;;9.13;100.00
69836;BME280;57132;51.972;4.450;2022-10-31T06:22:27;101910.84;;;9.14;100.00
69836;BME280;57132;51.972;4.450;2022-10-31T06:24:52;101913.47;;;9.16;100.00
69836;BME280;57132;51.972;4.450;2022-10-31T06:27:17;101912.59;;;9.15;100.00
69836;BME280;57132;51.972;4.450;2022-10-31T06:29:43;101910.81;;;9.16;100.00
69836;BME280;57132;51.972;4.450;2022-10-31T06:32:11;101912.44;;;9.18;100.00
69836;BME280;57132;51.972;4.450;2022-10-31T06:34:37;101914.25;;;9.18;100.00
69836;BME280;57132;51.972;4.450;2022-10-31T06:37:02;101903.22;;;9.25;100.00
69836;BME280;57132;51.972;4.450;2022-10-31T06:39:28;101903.56;;;9.36;100.00
69836;BME280;57132;51.972;4.450;2022-10-31T06:41:53;101902.34;;;9.44;100.00
69836;BME280;57132;51.972;4.450;2022-10-31T06:44:18;101903.91;;;9.48;100.00
69836;BME280;57132;51.972;4.450;2022-10-31T06:46:46;101907.19;;;9.53;100.00
69836;BME280;57132;51.972;4.450;2022-10-31T06:49:12;101900.00;;;9.55;100.00
69836;BME280;57132;51.972;4.450;2022-10-31T06:51:38;101908.72;;;9.58;100.00
69836;BME280;57132;51.972;4.450;2022-10-31T06:54:03;101901.34;;;9.64;100.00
69836;BME280;57132;51.972;4.450;2022-10-31T06:56:28;101914.69;;;9.64;100.00
69836;BME280;57132;51.972;4.450;2022-10-31T06:58:54;101911.63;;;9.71;100.00
69836;BME280;57132;51.972;4.450;2022-10-31T07:01:19;101914.22;;;9.73;100.00
69836;BME280;57132;51.972;4.450;2022-10-31T07:03:44;101913.19;;;9.75;100.00
69836;BME280;57132;51.972;4.450;2022-10-31T07:06:10;101923.63;;;9.80;100.00
69836;BME280;57132;51.972;4.450;2022-10-31T07:08:35;101923.47;;;9.83;100.00
69836;BME280;57132;51.972;4.450;2022-10-31T07:11:01;101919.72;;;9.87;100.00
69836;BME280;57132;51.972;4.450;2022-10-31T07:13:26;101925.81;;;9.89;100.00
69836;BME280;57132;51.972;4.450;2022-10-31T07:16:04;101929.19;;;9.93;100.00
69836;BME280;57132;51.972;4.450;2022-10-31T07:18:32;101932.53;;;9.98;100.00
69836;BME280;57132;51.972;4.450;2022-10-31T07:20:57;101934.00;;;10.03;100.00
69836;BME280;57132;51.972;4.450;2022-10-31T07:23:23;101931.09;;;10.08;100.00
69836;BME280;57132;51.972;4.450;2022-10-31T07:25:48;101932.41;;;10.17;100.00
69836;BME280;57132;51.972;4.450;2022-10-31T07:28:19;101936.22;;;10.30;100.00
69836;BME280;57132;51.972;4.450;2022-10-31T07:30:49;101933.16;;;10.38;100.00
69836;BME280;57132;51.972;4.450;2022-10-31T07:33:15;101934.53;;;10.45;100.00
69836;BME280;57132;51.972;4.450;2022-10-31T07:35:40;101938.78;;;10.49;100.00
69836;BME280;57132;51.972;4.450;2022-10-31T07:38:10;101935.25;;;10.48;100.00
69836;BME280;57132;51.972;4.450;2022-10-31T07:40:36;101933.53;;;10.47;100.00
69836;BME280;57132;51.972;4.450;2022-10-31T07:43:01;101920.88;;;10.51;100.00
69836;BME280;57132;51.972;4.450;2022-10-31T07:45:27;101928.78;;;10.52;100.00
69836;BME280;57132;51.972;4.450;2022-10-31T07:47:52;101925.13;;;10.55;100.00
69836;BME280;57132;51.972;4.450;2022-10-31T07:50:21;101925.97;;;10.55;100.00
69836;BME280;57132;51.972;4.450;2022-10-31T07:52:46;101923.22;;;10.57;100.00
69836;BME280;57132;51.972;4.450;2022-10-31T07:55:12;101916.84;;;10.59;100.00
69836;BME280;57132;51.972;4.450;2022-10-31T07:57:37;101924.72;;;10.63;100.00
69836;BME280;57132;51.972;4.450;2022-10-31T08:00:08;101918.56;;;10.61;100.00
69836;BME280;57132;51.972;4.450;2022-10-31T08:02:34;101922.75;;;10.66;100.00
69836;BME280;57132;51.972;4.450;2022-10-31T08:04:59;101919.66;;;10.74;100.00
69836;BME280;57132;51.972;4.450;2022-10-31T08:07:27;101917.59;;;10.79;100.00
69836;BME280;57132;51.972;4.450;2022-10-31T08:09:53;101919.16;;;10.83;100.00
69836;BME280;57132;51.972;4.450;2022-10-31T08:12:18;101919.59;;;10.91;100.00
69836;BME280;57132;51.972;4.450;2022-10-31T08:14:44;101924.41;;;11.00;100.00
69836;BME280;57132;51.972;4.450;2022-10-31T08:17:10;101923.22;;;11.06;100.00
69836;BME280;57132;51.972;4.450;2022-10-31T08:19:35;101922.81;;;11.14;100.00
69836;BME280;57132;51.972;4.450;2022-10-31T08:22:01;101930.47;;;11.20;100.00
69836;BME280;57132;51.972;4.450;2022-10-31T08:24:26;101927.47;;;11.26;100.00
69836;BME280;57132;51.972;4.450;2022-10-31T08:26:52;101936.00;;;11.32;100.00
69836;BME280;57132;51.972;4.450;2022-10-31T08:29:17;101930.56;;;11.50;100.00
69836;BME280;57132;51.972;4.450;2022-10-31T08:31:42;101936.84;;;11.65;100.00
69836;BME280;57132;51.972;4.450;2022-10-31T08:34:08;101926.19;;;11.79;100.00
69836;BME280;57132;51.972;4.450;2022-10-31T08:36:34;101934.47;;;11.90;100.00
69836;BME280;57132;51.972;4.450;2022-10-31T08:39:00;101935.78;;;12.13;100.00
69836;BME280;57132;51.972;4.450;2022-10-31T08:41:25;101924.63;;;12.21;100.00
69836;BME280;57132;51.972;4.450;2022-10-31T08:43:50;101917.03;;;12.43;100.00
69836;BME280;57132;51.972;4.450;2022-10-31T08:46:16;101924.28;;;12.41;100.00
69836;BME280;57132;51.972;4.450;2022-10-31T08:48:42;101924.00;;;12.60;100.00
69836;BME280;57132;51.972;4.450;2022-10-31T08:51:08;101925.72;;;12.61;100.00
69836;BME280;57132;51.972;4.450;2022-10-31T08:53:33;101921.91;;;12.65;100.00
69836;BME280;57132;51.972;4.450;2022-10-31T08:55:59;101915.41;;;12.84;100.00
69836;BME280;57132;51.972;4.450;2022-10-31T08:58:24;101907.81;;;12.90;100.00
69836;BME280;57132;51.972;4.450;2022-10-31T09:00:52;101910.00;;;12.98;100.00
69836;BME280;57132;51.972;4.450;2022-10-31T09:03:25;101905.19;;;13.17;100.00
69836;BME280;57132;51.972;4.450;2022-10-31T09:05:55;101899.34;;;13.25;100.00
69836;BME280;57132;51.972;4.450;2022-10-31T09:08:21;101895.50;;;13.29;100.00
69836;BME280;57132;51.972;4.450;2022-10-31T09:10:46;101894.91;;;13.38;100.00
69836;BME280;57132;51.972;4.450;2022-10-31T09:13:14;101892.28;;;13.24;100.00
69836;BME280;57132;51.972;4.450;2022-10-31T09:15:42;101886.53;;;13.16;100.00
69836;BME280;57132;51.972;4.450;2022-10-31T09:18:09;101887.94;;;13.21;100.00
69836;BME280;57132;51.972;4.450;2022-10-31T09:20:36;101887.06;;;13.21;100.00
69836;BME280;57132;51.972;4.450;2022-10-31T09:23:08;101878.06;;;13.22;100.00
69836;BME280;57132;51.972;4.450;2022-10-31T09:25:34;101870.44;;;13.16;100.00
69836;BME280;57132;51.972;4.450;2022-10-31T09:28:02;101869.00;;;13.24;100.00
69836;BME280;57132;51.972;4.450;2022-10-31T09:30:29;101859.44;;;13.47;100.00
69836;BME280;57132;51.972;4.450;2022-10-31T09:33:03;101856.78;;;13.60;100.00
69836;BME280;57132;51.972;4.450;2022-10-31T09:35:29;101858.56;;;13.74;100.00
69836;BME280;57132;51.972;4.450;2022-10-31T09:37:55;101855.66;;;13.77;100.00
69836;BME280;57132;51.972;4.450;2022-10-31T09:40:21;101855.66;;;13.77;100.00
69836;BME280;57132;51.972;4.450;2022-10-31T09:45:36;101857.94;;;13.83;100.00
69836;BME280;57132;51.972;4.450;2022-10-31T09:50:54;101838.16;;;13.84;100.00
69836;BME280;57132;51.972;4.450;2022-10-31T09:53:41;101836.25;;;13.86;100.00
69836;BME280;57132;51.972;4.450;2022-10-31T09:56:12;101831.31;;;13.93;100.00
69836;BME280;57132;51.972;4.450;2022-10-31T09:58:43;101830.34;;;13.94;100.00
69836;BME280;57132;51.972;4.450;2022-10-31T10:01:22;101822.50;;;13.91;100.00
69836;BME280;57132;51.972;4.450;2022-10-31T10:03:55;101825.53;;;13.99;100.00
69836;BME280;57132;51.972;4.450;2022-10-31T10:06:25;101815.09;;;13.94;100.00
69836;BME280;57132;51.972;4.450;2022-10-31T10:08:52;101820.34;;;13.96;100.00
69836;BME280;57132;51.972;4.450;2022-10-31T10:14:42;101823.78;;;14.36;100.00
69836;BME280;57132;51.972;4.450;2022-10-31T10:22:43;101800.47;;;16.27;100.00
69836;BME280;57132;51.972;4.450;2022-10-31T10:27:49;101793.41;;;18.09;89.68
69836;BME280;57132;51.972;4.450;2022-10-31T10:30:21;101795.00;;;18.42;85.78
69836;BME280;57132;51.972;4.450;2022-10-31T10:32:53;101791.56;;;18.40;81.07
69836;BME280;57132;51.972;4.450;2022-10-31T10:40:41;101783.28;;;18.32;79.78
69836;BME280;57132;51.972;4.450;2022-10-31T10:59:27;101773.78;;;15.90;91.99
69836;BME280;57132;51.972;4.450;2022-10-31T11:01:52;101764.44;;;15.83;93.19
69836;BME280;57132;51.972;4.450;2022-10-31T11:04:38;101763.09;;;15.78;94.63
69836;BME280;57132;51.972;4.450;2022-10-31T11:07:09;101764.78;;;15.67;95.79
69836;BME280;57132;51.972;4.450;2022-10-31T11:09:36;101752.88;;;15.59;97.57
69836;BME280;57132;51.972;4.450;2022-10-31T11:12:32;101759.88;;;15.61;98.58
69836;BME280;57132;51.972;4.450;2022-10-31T11:15:02;101756.03;;;15.77;98.68
69836;BME280;57132;51.972;4.450;2022-10-31T11:17:32;101760.06;;;15.82;98.96
69836;BME280;57132;51.972;4.450;2022-10-31T11:22:41;101739.59;;;15.80;98.75
69836;BME280;57132;51.972;4.450;2022-10-31T11:28:02;101740.22;;;15.72;99.56
69836;BME280;57132;51.972;4.450;2022-10-31T11:30:28;101740.78;;;15.64;100.00
69836;BME280;57132;51.972;4.450;2022-10-31T11:32:55;101728.41;;;15.62;100.00
69836;BME280;57132;51.972;4.450;2022-10-31T11:35:22;101735.75;;;15.60;100.00
69836;BME280;57132;51.972;4.450;2022-10-31T11:37:50;101727.66;;;15.48;100.00
69836;BME280;57132;51.972;4.450;2022-10-31T11:40:21;101728.34;;;15.39;100.00
69836;BME280;57132;51.972;4.450;2022-10-31T11:42:49;101706.72;;;15.30;100.00
69836;BME280;57132;51.972;4.450;2022-10-31T11:45:29;101698.00;;;15.26;100.00
69836;BME280;57132;51.972;4.450;2022-10-31T11:47:56;101697.16;;;15.25;100.00
69836;BME280;57132;51.972;4.450;2022-10-31T11:50:26;101701.44;;;15.28;100.00
69836;BME280;57132;51.972;4.450;2022-10-31T11:52:52;101704.25;;;15.27;100.00
69836;BME280;57132;51.972;4.450;2022-10-31T11:55:38;101700.69;;;15.26;100.00
69836;BME280;57132;51.972;4.450;2022-10-31T11:58:19;101700.69;;;15.26;100.00
69836;BME280;57132;51.972;4.450;2022-10-31T12:00:49;101693.34;;;15.28;100.00
69836;BME280;57132;51.972;4.450;2022-10-31T12:03:37;101684.09;;;15.43;100.00
69836;BME280;57132;51.972;4.450;2022-10-31T12:08:37;101661.66;;;15.78;100.00
69836;BME280;57132;51.972;4.450;2022-10-31T12:13:39;101633.75;;;15.79;100.00
69836;BME280;57132;51.972;4.450;2022-10-31T12:16:39;101629.13;;;15.92;100.00
69836;BME280;57132;51.972;4.450;2022-10-31T12:22:24;101622.84;;;16.03;100.00
69836;BME280;57132;51.972;4.450;2022-10-31T12:30:21;101599.19;;;16.18;100.00
69836;BME280;57132;51.972;4.450;2022-10-31T12:35:35;101574.34;;;16.46;98.70
69836;BME280;57132;51.972;4.450;2022-10-31T12:46:00;101552.28;;;16.53;97.85
69836;BME280;57132;51.972;4.450;2022-10-31T12:59:20;101517.75;;;15.93;100.00
69836;BME280;57132;51.972;4.450;2022-10-31T13:01:59;101518.84;;;15.80;100.00
69836;BME280;57132;51.972;4.450;2022-10-31T13:06:57;101509.25;;;15.66;100.00
69836;BME280;57132;51.972;4.450;2022-10-31T13:09:33;101502.50;;;15.60;100.00
69836;BME280;57132;51.972;4.450;2022-10-31T13:12:20;101499.06;;;15.58;100.00
69836;BME280;57132;51.972;4.450;2022-10-31T13:14:53;101492.97;;;15.56;100.00
69836;BME280;57132;51.972;4.450;2022-10-31T13:19:48;101484.38;;;15.51;100.00
69836;BME280;57132;51.972;4.450;2022-10-31T13:22:19;101479.16;;;15.49;100.00
69836;BME280;57132;51.972;4.450;2022-10-31T13:27:26;101470.31;;;15.47;100.00
69836;BME280;57132;51.972;4.450;2022-10-31T13:30:05;101469.47;;;15.47;100.00
69836;BME280;57132;51.972;4.450;2022-10-31T13:36:00;101461.41;;;15.47;100.00
69836;BME280;57132;51.972;4.450;2022-10-31T13:46:39;101443.09;;;15.41;100.00
69836;BME280;57132;51.972;4.450;2022-10-31T13:49:24;101447.88;;;15.37;100.00
69836;BME280;57132;51.972;4.450;2022-10-31T13:51:50;101442.72;;;15.34;100.00
69836;BME280;57132;51.972;4.450;2022-10-31T13:54:39;101431.22;;;15.32;100.00
69836;BME280;57132;51.972;4.450;2022-10-31T13:59:52;101416.44;;;15.27;100.00
69836;BME280;57132;51.972;4.450;2022-10-31T14:02:25;101412.16;;;15.24;100.00
69836;BME280;57132;51.972;4.450;2022-10-31T14:04:55;101412.91;;;15.26;100.00
69836;BME280;57132;51.972;4.450;2022-10-31T14:07:23;101415.59;;;15.26;100.00
69836;BME280;57132;51.972;4.450;2022-10-31T14:10:07;101401.41;;;15.24;100.00
69836;BME280;57132;51.972;4.450;2022-10-31T14:12:45;101392.63;;;15.22;100.00
69836;BME280;57132;51.972;4.450;2022-10-31T14:15:20;101383.56;;;15.23;100.00
69836;BME280;57132;51.972;4.450;2022-10-31T14:22:48;101365.00;;;15.20;100.00
69836;BME280;57132;51.972;4.450;2022-10-31T14:25:35;101360.59;;;15.19;100.00
69836;BME280;57132;51.972;4.450;2022-10-31T14:28:33;101350.69;;;15.19;100.00
69836;BME280;57132;51.972;4.450;2022-10-31T14:30:59;101342.75;;;15.18;100.00
69836;BME280;57132;51.972;4.450;2022-10-31T14:33:27;101339.22;;;15.17;100.00
69836;BME280;57132;51.972;4.450;2022-10-31T14:36:16;101333.00;;;15.17;100.00
69836;BME280;57132;51.972;4.450;2022-10-31T14:39:00;101316.25;;;15.13;100.00
69836;BME280;57132;51.972;4.450;2022-10-31T14:42:00;101315.91;;;15.07;100.00
69836;BME280;57132;51.972;4.450;2022-10-31T14:52:23;101297.56;;;15.00;100.00
69836;BME280;57132;51.972;4.450;2022-10-31T14:54:53;101298.44;;;15.01;100.00
69836;BME280;57132;51.972;4.450;2022-10-31T14:57:24;101294.03;;;15.00;100.00
69836;BME280;57132;51.972;4.450;2022-10-31T14:59:55;101291.22;;;15.02;100.00
69836;BME280;57132;51.972;4.450;2022-10-31T15:02:33;101284.13;;;15.00;100.00
69836;BME280;57132;51.972;4.450;2022-10-31T15:05:07;101276.81;;;15.03;100.00
69836;BME280;57132;51.972;4.450;2022-10-31T15:07:33;101272.78;;;14.97;100.00
69836;BME280;57132;51.972;4.450;2022-10-31T15:10:19;101270.34;;;14.94;100.00
69836;BME280;57132;51.972;4.450;2022-10-31T15:12:45;101272.44;;;14.90;100.00
69836;BME280;57132;51.972;4.450;2022-10-31T15:15:13;101267.44;;;14.86;100.00
69836;BME280;57132;51.972;4.450;2022-10-31T15:17:43;101264.16;;;14.82;100.00